Time;durP1;ratioP1;P1;durP2;ratioP2;P2;SDS_P1;SDS_P2;PMS_P1;PMS_P2;Temp;Humidity;BMP_temperature;BMP_pressure;BME280_temperature;BME280_humidity;BME280_pressure;Samples;Min_cycle;Max_cycle;Signal;HPM_P1;HPM_P2
2022/10/14 00:02:44;;;;;;;53.38;33.25;;;;;;;7.30;80.39;100421.36;2033348;86;21644;-83
2022/10/14 00:05:45;;;;;;;56.65;33.00;;;;;;;7.29;80.32;100417.52;2038445;86;21002;-80
2022/10/14 00:08:46;;;;;;;58.23;32.58;;;;;;;7.25;80.23;100417.47;2032779;86;21426;-86
2022/10/14 00:11:50;;;;;;;61.02;32.98;;;;;;;7.24;80.33;100421.09;2031223;85;21057;-83
2022/10/14 00:14:52;;;;;;;63.08;34.55;;;;;;;7.17;80.31;100420.30;2039254;86;21536;-84
2022/10/14 00:17:53;;;;;;;61.65;35.60;;;;;;;7.13;80.38;100420.23;2032515;86;21645;-82
2022/10/14 00:21:01;;;;;;;54.98;31.95;;;;;;;7.06;80.48;100413.00;2030551;86;21041;-83
2022/10/14 00:24:03;;;;;;;58.05;34.63;;;;;;;7.03;80.46;100411.95;2026673;86;21133;-83
2022/10/14 00:27:04;;;;;;;55.83;34.53;;;;;;;7.01;80.54;100415.20;2020556;86;21041;-82
2022/10/14 00:30:07;;;;;;;61.90;34.18;;;;;;;7.01;80.74;100412.11;2029935;86;21013;-82
2022/10/14 00:33:07;;;;;;;54.80;32.67;;;;;;;7.01;80.65;100413.42;2034653;86;21067;-83
2022/10/14 00:36:13;;;;;;;51.77;31.17;;;;;;;7.01;80.85;100411.25;2034917;86;21017;-84
2022/10/14 00:39:14;;;;;;;57.80;32.20;;;;;;;6.99;80.46;100413.20;2027254;86;20971;-81
2022/10/14 00:42:15;;;;;;;54.77;32.85;;;;;;;6.98;80.56;100409.71;2030623;86;21075;-85
2022/10/14 00:45:22;;;;;;;55.43;32.30;;;;;;;6.98;80.79;100402.28;2039083;86;21031;-85
2022/10/14 00:48:25;;;;;;;56.28;31.02;;;;;;;6.93;80.86;100405.35;2033286;86;21018;-83
2022/10/14 00:51:29;;;;;;;46.77;29.15;;;;;;;6.91;81.15;100399.37;2032001;86;21521;-81
2022/10/14 00:54:34;;;;;;;55.00;32.73;;;;;;;6.91;80.98;100404.64;2035387;86;21478;-81
2022/10/14 00:57:37;;;;;;;64.30;33.15;;;;;;;6.90;80.96;100404.31;2035906;86;21046;-83
2022/10/14 01:00:39;;;;;;;57.48;30.50;;;;;;;6.87;81.11;100392.68;2033381;86;21085;-83
2022/10/14 01:03:41;;;;;;;53.58;33.98;;;;;;;6.83;81.23;100388.17;2032024;86;21039;-84
2022/10/14 01:06:53;;;;;;;49.83;31.42;;;;;;;6.83;81.42;100386.02;2038790;86;21066;-83
2022/10/14 01:10:21;;;;;;;54.65;32.88;;;;;;;6.82;81.29;100388.33;2030305;86;21049;-79
2022/10/14 01:13:36;;;;;;;53.85;32.33;;;;;;;6.77;81.33;100385.25;2032040;86;21630;-81
2022/10/14 01:17:09;;;;;;;52.00;33.28;;;;;;;6.75;81.36;100378.78;2033862;86;21035;-82
2022/10/14 01:20:39;;;;;;;54.63;33.25;;;;;;;6.77;81.60;100381.30;2030704;86;20994;-83
2022/10/14 01:24:16;;;;;;;46.30;29.60;;;;;;;6.77;81.66;100374.70;2021870;86;21115;-80
2022/10/14 01:27:48;;;;;;;49.42;29.60;;;;;;;6.72;81.47;100374.61;2028837;86;21540;-80
2022/10/14 01:31:04;;;;;;;46.42;28.73;;;;;;;6.70;81.22;100372.61;2010431;86;21069;-84
2022/10/14 01:34:09;;;;;;;59.50;32.13;;;;;;;6.71;81.25;100371.64;2034787;86;21074;-81
2022/10/14 01:37:15;;;;;;;48.92;30.43;;;;;;;6.71;81.27;100372.13;2028207;86;21042;-83
2022/10/14 01:40:22;;;;;;;59.13;31.42;;;;;;;6.73;81.20;100367.06;2028914;86;21022;-85
2022/10/14 01:43:26;;;;;;;47.05;28.40;;;;;;;6.67;81.26;100363.66;2033931;86;21109;-84
2022/10/14 01:46:29;;;;;;;50.60;29.48;;;;;;;6.62;81.23;100363.23;2030531;86;21096;-83
2022/10/14 01:49:44;;;;;;;51.88;31.85;;;;;;;6.60;81.30;100368.28;2026403;86;21579;-83
2022/10/14 01:52:53;;;;;;;44.25;30.12;;;;;;;6.58;81.61;100359.17;2040005;86;20997;-79
2022/10/14 01:55:56;;;;;;;54.88;30.37;;;;;;;6.57;81.50;100360.64;2040713;86;21002;-84
2022/10/14 01:58:59;;;;;;;49.08;29.27;;;;;;;6.55;81.53;100359.45;2035417;86;21426;-83
2022/10/14 02:02:00;;;;;;;52.78;31.87;;;;;;;6.55;81.42;100352.03;2034845;86;21041;-83
2022/10/14 02:05:06;;;;;;;48.38;27.22;;;;;;;6.55;81.48;100358.13;2035043;86;21066;-83
2022/10/14 02:08:19;;;;;;;48.85;29.82;;;;;;;6.51;81.33;100352.79;2028202;86;21085;-83
2022/10/14 02:11:22;;;;;;;48.90;29.75;;;;;;;6.49;81.22;100346.32;2025518;86;21042;-82
2022/10/14 02:14:44;;;;;;;47.15;28.95;;;;;;;6.43;81.40;100340.27;2031953;86;21064;-82
2022/10/14 02:18:08;;;;;;;50.33;29.87;;;;;;;6.39;81.31;100340.66;2027451;86;21049;-84
2022/10/14 02:21:22;;;;;;;62.03;31.30;;;;;;;6.36;81.67;100347.52;2030496;86;21067;-86
2022/10/14 02:24:29;;;;;;;50.70;30.27;;;;;;;6.37;82.08;100355.31;2034505;86;21014;-84
2022/10/14 02:27:31;;;;;;;51.63;30.52;;;;;;;6.34;81.64;100348.16;2040732;86;21532;-84
2022/10/14 02:30:37;;;;;;;55.12;32.55;;;;;;;6.22;81.73;100334.23;2010879;86;21078;-83
2022/10/14 02:33:43;;;;;;;47.75;30.57;;;;;;;6.16;82.16;100340.87;2033626;86;21062;-83
2022/10/14 02:36:45;;;;;;;56.40;33.05;;;;;;;6.16;82.01;100359.31;2035302;86;21021;-84
2022/10/14 02:39:57;;;;;;;50.88;32.03;;;;;;;6.12;82.59;100359.23;2028812;86;21114;-81
2022/10/14 02:42:59;;;;;;;56.42;31.82;;;;;;;6.10;82.43;100355.06;2028486;86;21546;-84
2022/10/14 02:46:02;;;;;;;54.38;31.93;;;;;;;6.04;82.41;100347.20;2029175;86;21013;-83
2022/10/14 02:49:03;;;;;;;57.40;33.25;;;;;;;6.01;82.43;100352.25;2011459;86;21064;-80
2022/10/14 02:52:04;;;;;;;54.58;33.23;;;;;;;5.99;82.48;100345.44;2029685;86;21009;-83
2022/10/14 02:55:06;;;;;;;52.05;29.30;;;;;;;5.97;82.49;100350.86;2040056;86;21035;-81
2022/10/14 02:58:07;;;;;;;51.02;30.48;;;;;;;5.93;82.10;100344.17;2028133;86;21534;-81
2022/10/14 03:10:13;;;;;;;48.90;29.67;;;;;;;5.90;82.38;100363.33;1991977;86;21212;-83
2022/10/14 03:13:14;;;;;;;55.78;32.23;;;;;;;5.83;81.92;100357.75;1967725;88;21506;-84
2022/10/14 03:16:17;;;;;;;50.08;29.45;;;;;;;5.79;82.42;100367.69;1951706;88;21030;-83
2022/10/14 03:19:19;;;;;;;50.73;28.73;;;;;;;5.75;82.07;100361.03;1961646;88;21114;-83
2022/10/14 03:22:21;;;;;;;53.55;30.00;;;;;;;5.56;81.59;100355.64;1965659;88;21031;-88
2022/10/14 03:25:23;;;;;;;47.65;29.98;;;;;;;5.48;81.83;100358.08;1946376;88;21013;-82
2022/10/14 03:28:31;;;;;;;50.92;28.35;;;;;;;5.45;82.05;100357.02;1954803;88;21572;-83
2022/10/14 03:31:34;;;;;;;48.60;26.93;;;;;;;5.43;81.93;100358.94;1966002;88;21073;-84
2022/10/14 03:34:53;;;;;;;44.55;25.43;;;;;;;5.38;81.57;100358.85;1967526;88;21027;-82
2022/10/14 03:37:58;;;;;;;52.23;30.10;;;;;;;5.29;81.13;100358.27;1965516;88;21609;-84
2022/10/14 03:41:01;;;;;;;106.70;33.10;;;;;;;5.23;81.41;100351.38;1954961;88;21043;-84
2022/10/14 03:44:02;;;;;;;59.38;30.00;;;;;;;5.15;81.56;100352.00;1963498;88;21536;-82
2022/10/14 03:47:03;;;;;;;52.23;29.15;;;;;;;5.09;81.64;100356.45;1975976;88;21066;-84
2022/10/14 03:50:06;;;;;;;57.10;30.60;;;;;;;5.09;81.55;100353.34;1957576;88;21074;-83
2022/10/14 03:53:12;;;;;;;41.20;26.42;;;;;;;5.07;81.36;100349.20;1975730;88;21133;-82
2022/10/14 03:56:13;;;;;;;49.08;28.62;;;;;;;5.07;81.84;100346.56;1979810;88;21073;-85
2022/10/14 03:59:15;;;;;;;57.83;32.05;;;;;;;4.94;81.67;100342.28;1972070;88;21097;-86
2022/10/14 04:02:18;;;;;;;53.17;29.85;;;;;;;4.90;82.10;100343.52;1962479;88;21490;-84
2022/10/14 04:05:19;;;;;;;50.55;28.52;;;;;;;4.92;82.39;100340.25;1974918;88;21034;-81
2022/10/14 04:08:21;;;;;;;47.53;28.38;;;;;;;4.90;82.33;100332.99;1965473;88;21062;-82
2022/10/14 04:11:24;;;;;;;52.88;29.10;;;;;;;4.70;81.75;100326.72;1983891;86;21545;-84
2022/10/14 04:14:27;;;;;;;54.75;31.35;;;;;;;4.61;82.26;100336.64;2011742;86;21043;-83
2022/10/14 04:17:30;;;;;;;56.95;33.20;;;;;;;4.67;83.44;100341.88;2011938;86;21020;-81
2022/10/14 04:20:33;;;;;;;54.93;31.40;;;;;;;4.71;83.15;100342.02;1988456;86;21086;-81
2022/10/14 04:23:34;;;;;;;52.40;32.42;;;;;;;4.76;83.08;100341.63;2007922;86;21058;-84
2022/10/14 04:26:41;;;;;;;51.77;32.08;;;;;;;4.77;82.92;100321.80;1998841;86;21601;-85
2022/10/14 04:29:44;;;;;;;53.73;34.30;;;;;;;4.75;83.31;100322.39;1985031;88;21062;-83
2022/10/14 04:32:46;;;;;;;57.03;34.33;;;;;;;4.76;83.29;100320.14;1986047;88;21047;-82
2022/10/14 04:35:48;;;;;;;57.98;35.35;;;;;;;4.80;83.56;100316.77;2021833;86;21026;-83
2022/10/14 04:38:51;;;;;;;58.50;34.90;;;;;;;4.86;83.93;100317.58;2009587;86;21039;-86
2022/10/14 04:41:52;;;;;;;56.92;33.48;;;;;;;4.89;83.84;100315.52;2012576;86;21577;-83
2022/10/14 04:44:55;;;;;;;52.83;31.75;;;;;;;4.89;83.64;100319.47;2004194;87;21548;-83
2022/10/14 04:47:58;;;;;;;51.08;30.82;;;;;;;4.89;83.63;100311.58;1982704;88;21096;-85
2022/10/14 04:51:00;;;;;;;55.33;32.50;;;;;;;4.92;83.47;100317.91;1985856;89;21151;-84
2022/10/14 04:54:19;;;;;;;51.13;30.75;;;;;;;4.99;83.58;100317.42;1982864;89;21124;-81
2022/10/14 04:57:22;;;;;;;58.38;32.40;;;;;;;4.97;83.54;100316.22;2026836;86;21046;-81
2022/10/14 05:00:24;;;;;;;61.00;34.67;;;;;;;4.96;83.67;100311.94;1995686;86;20975;-81
2022/10/14 05:03:29;;;;;;;63.68;33.15;;;;;;;4.97;83.86;100300.93;2007200;86;21082;-83
2022/10/14 05:06:31;;;;;;;51.13;31.40;;;;;;;4.99;83.86;100305.11;2019950;86;21034;-82
2022/10/14 05:09:32;;;;;;;64.80;34.75;;;;;;;5.04;83.87;100312.59;2030374;86;20986;-80
2022/10/14 05:12:33;;;;;;;57.75;32.93;;;;;;;5.08;83.99;100307.45;2008313;86;21079;-86
2022/10/14 05:15:35;;;;;;;48.83;29.50;;;;;;;5.12;84.09;100301.83;2012450;86;21026;-86
2022/10/14 05:18:44;;;;;;;46.45;30.02;;;;;;;5.14;83.73;100310.89;2012741;86;21036;-84
2022/10/14 05:21:46;;;;;;;51.80;31.70;;;;;;;5.16;83.69;100303.71;2015391;86;21073;-83
2022/10/14 05:24:50;;;;;;;59.45;33.40;;;;;;;5.21;83.69;100309.89;2016446;86;21055;-83
2022/10/14 05:27:52;;;;;;;62.35;34.73;;;;;;;5.26;83.78;100314.29;2014821;86;21060;-82
2022/10/14 05:30:54;;;;;;;55.20;33.53;;;;;;;5.27;83.87;100312.86;2015690;86;21594;-82
2022/10/14 05:33:56;;;;;;;66.97;38.88;;;;;;;5.32;83.91;100312.00;2013201;86;21035;-82
2022/10/14 05:36:57;;;;;;;60.83;36.33;;;;;;;5.31;83.87;100313.44;2021754;86;21085;-79
2022/10/14 05:39:59;;;;;;;56.65;35.88;;;;;;;5.37;84.14;100309.80;2012751;86;21071;-81
2022/10/14 05:43:00;;;;;;;56.30;32.40;;;;;;;5.48;84.19;100312.02;2012062;86;21113;-78
2022/10/14 05:46:02;;;;;;;56.33;32.48;;;;;;;5.64;84.35;100308.94;2014844;86;21076;-78
2022/10/14 05:49:05;;;;;;;59.05;33.20;;;;;;;5.75;84.19;100301.78;2012986;86;21086;-79
2022/10/14 05:52:08;;;;;;;61.65;37.40;;;;;;;5.89;84.19;100298.45;2001170;86;21497;-79
2022/10/14 05:55:09;;;;;;;77.62;44.88;;;;;;;5.98;84.29;100293.25;2014360;86;21042;-83
2022/10/14 05:58:10;;;;;;;63.33;38.80;;;;;;;6.11;84.44;100296.98;2021374;86;21045;-80
2022/10/14 06:01:13;;;;;;;63.05;36.28;;;;;;;6.24;84.52;100304.14;2015389;86;21015;-82
2022/10/14 06:04:18;;;;;;;65.75;38.38;;;;;;;6.34;84.44;100300.73;2013438;86;21140;-79
2022/10/14 06:07:20;;;;;;;59.27;35.13;;;;;;;6.42;84.37;100299.08;2016723;86;20990;-79
2022/10/14 06:10:21;;;;;;;54.75;34.98;;;;;;;6.40;83.98;100304.14;2017457;86;21042;-81
2022/10/14 06:13:22;;;;;;;55.30;33.40;;;;;;;6.39;84.16;100299.36;2025675;86;21525;-80
2022/10/14 06:16:24;;;;;;;55.70;32.55;;;;;;;6.43;84.33;100305.18;2006363;86;22283;-80
2022/10/14 06:19:25;;;;;;;58.25;35.38;;;;;;;6.48;84.50;100301.17;2023352;86;21109;-80
2022/10/14 06:22:27;;;;;;;55.65;33.25;;;;;;;6.53;84.56;100302.06;2008561;86;21026;-80
2022/10/14 06:25:29;;;;;;;65.85;35.90;;;;;;;6.63;84.77;100301.59;2024373;86;21508;-80
2022/10/14 06:28:31;;;;;;;63.05;35.55;;;;;;;6.73;84.96;100306.91;2013933;86;21482;-79
2022/10/14 06:31:32;;;;;;;55.75;35.63;;;;;;;6.90;85.01;100302.75;2018279;86;21487;-80
2022/10/14 06:34:35;;;;;;;54.40;33.33;;;;;;;7.02;84.99;100302.95;2014318;86;21066;-81
2022/10/14 06:37:37;;;;;;;57.65;33.90;;;;;;;7.10;84.77;100303.09;2022544;86;21014;-81
2022/10/14 06:40:38;;;;;;;55.12;35.17;;;;;;;7.21;84.88;100311.81;2019118;86;21049;-78
2022/10/14 06:43:39;;;;;;;60.70;35.58;;;;;;;7.33;84.88;100308.06;2030442;86;21077;-81
2022/10/14 06:46:40;;;;;;;59.40;36.98;;;;;;;7.40;84.75;100306.51;2019990;86;21120;-79
2022/10/14 06:49:41;;;;;;;80.42;48.58;;;;;;;7.44;84.78;100313.69;2020794;86;21084;-79
2022/10/14 06:52:45;;;;;;;82.30;50.20;;;;;;;7.53;84.82;100312.83;2025153;86;21015;-80
2022/10/14 06:55:46;;;;;;;81.25;50.43;;;;;;;7.62;84.89;100306.19;2019210;86;21051;-80
2022/10/14 06:58:47;;;;;;;84.20;52.75;;;;;;;7.78;85.03;100312.69;2011612;86;21077;-81
2022/10/14 07:01:48;;;;;;;78.45;49.30;;;;;;;7.92;84.97;100311.39;2023600;86;21014;-80
2022/10/14 07:04:49;;;;;;;81.05;49.53;;;;;;;7.99;84.75;100309.82;2020848;86;20972;-81
2022/10/14 07:07:50;;;;;;;74.05;44.80;;;;;;;8.11;84.79;100315.28;2019632;86;21039;-80
2022/10/14 07:10:51;;;;;;;66.10;41.20;;;;;;;8.27;84.88;100314.63;1981572;86;20990;-81
2022/10/14 07:13:55;;;;;;;58.78;35.70;;;;;;;8.46;84.98;100313.23;1992151;86;21128;-80
2022/10/14 07:16:57;;;;;;;58.33;36.30;;;;;;;8.64;84.84;100315.90;2017508;86;21028;-81
2022/10/14 07:19:58;;;;;;;54.80;34.58;;;;;;;8.82;84.75;100306.67;2005552;86;21026;-80
2022/10/14 07:22:59;;;;;;;53.50;35.25;;;;;;;9.00;84.75;100314.61;2024299;86;21054;-80
2022/10/14 07:26:01;;;;;;;55.00;34.88;;;;;;;9.17;84.63;100317.73;1982247;86;21059;-80
2022/10/14 07:29:04;;;;;;;60.90;37.50;;;;;;;9.24;84.35;100312.67;1996841;86;21019;-80
2022/10/14 07:32:05;;;;;;;54.77;34.23;;;;;;;9.32;84.16;100307.91;2019361;86;21023;-79
2022/10/14 07:35:07;;;;;;;52.05;34.03;;;;;;;9.48;84.18;100304.56;1974859;87;21551;-79
2022/10/14 07:38:08;;;;;;;57.80;35.50;;;;;;;9.57;84.01;100302.30;2015128;86;21002;-80
2022/10/14 07:41:17;;;;;;;53.28;33.30;;;;;;;9.69;84.08;100306.87;1985476;88;21067;-80
2022/10/14 07:44:19;;;;;;;52.35;34.15;;;;;;;10.10;84.50;100306.06;1979472;88;21082;-80
2022/10/14 07:47:20;;;;;;;52.08;35.25;;;;;;;10.49;84.50;100302.10;2025016;86;20995;-80
2022/10/14 07:50:22;;;;;;;51.42;34.00;;;;;;;10.68;84.14;100299.67;2020297;86;21073;-81
2022/10/14 07:53:24;;;;;;;49.10;32.28;;;;;;;10.81;83.77;100299.17;2010859;86;21006;-81
2022/10/14 07:56:26;;;;;;;49.75;32.93;;;;;;;11.25;83.96;100301.03;1989174;88;21059;-80
2022/10/14 07:59:27;;;;;;;50.65;31.70;;;;;;;11.25;83.96;100301.03;1962563;88;20991;-81
2022/10/14 08:02:28;;;;;;;45.83;31.97;;;;;;;11.46;83.23;100308.51;1984139;88;21072;-81
2022/10/14 08:05:30;;;;;;;43.55;30.30;;;;;;;11.71;83.20;100301.80;1981051;88;21001;-79
2022/10/14 08:08:31;;;;;;;43.15;28.42;;;;;;;12.19;83.58;100300.88;2006857;86;21019;-78
2022/10/14 08:11:33;;;;;;;48.85;30.57;;;;;;;12.78;83.08;100307.02;2009868;86;21056;-80
2022/10/14 08:14:35;;;;;;;45.23;29.50;;;;;;;13.41;82.48;100305.09;2006149;86;21015;-79
2022/10/14 08:17:36;;;;;;;46.05;27.82;;;;;;;14.11;82.03;100319.35;2014000;86;21029;-76
2022/10/14 08:20:38;;;;;;;39.78;28.12;;;;;;;14.71;80.87;100311.27;2019709;86;21080;-78
2022/10/14 08:23:39;;;;;;;42.40;30.52;;;;;;;15.02;79.69;100313.12;2023008;86;21003;-78
2022/10/14 08:26:51;;;;;;;44.50;29.35;;;;;;;15.23;78.42;100314.98;1987263;88;21020;-79
2022/10/14 08:29:54;;;;;;;43.23;28.10;;;;;;;15.46;77.92;100312.08;1990556;88;21071;-80
2022/10/14 08:32:55;;;;;;;39.95;26.68;;;;;;;15.94;77.81;100308.73;1993336;88;21089;-80
2022/10/14 08:35:56;;;;;;;38.60;26.95;;;;;;;16.46;77.33;100300.61;2017534;86;21533;-78
2022/10/14 08:38:57;;;;;;;38.05;27.58;;;;;;;16.86;75.99;100291.89;2023575;86;21557;-80
2022/10/14 08:42:22;;;;;;;40.43;27.15;;;;;;;17.27;75.33;100294.93;2026298;86;21043;-79
2022/10/14 08:45:37;;;;;;;39.27;26.93;;;;;;;17.66;74.70;100292.73;2016854;86;21023;-79
2022/10/14 08:48:39;;;;;;;37.60;25.48;;;;;;;18.01;72.77;100298.66;2023888;86;21442;-79
2022/10/14 08:51:44;;;;;;;40.10;24.67;;;;;;;18.30;72.65;100300.52;2026805;86;21648;-78
2022/10/14 08:54:54;;;;;;;31.62;23.73;;;;;;;18.61;71.59;100297.06;2020031;86;21016;-79
2022/10/14 08:58:08;;;;;;;36.45;25.62;;;;;;;18.88;70.60;100292.39;2011021;86;21010;-79
2022/10/14 09:01:39;;;;;;;41.83;27.62;;;;;;;18.99;69.30;100298.95;2012879;86;21034;-80
2022/10/14 09:04:40;;;;;;;39.33;23.92;;;;;;;19.15;68.46;100295.73;2026769;86;21034;-80
2022/10/14 09:07:44;;;;;;;35.23;24.63;;;;;;;19.31;67.87;100290.31;2021342;86;21506;-79
2022/10/14 09:10:45;;;;;;;32.10;22.37;;;;;;;19.53;67.03;100290.73;2028611;86;21041;-79
2022/10/14 09:13:57;;;;;;;33.53;24.32;;;;;;;19.48;65.99;100290.58;2011826;86;21046;-77
2022/10/14 09:17:10;;;;;;;32.15;21.12;;;;;;;19.62;66.07;100287.23;1995000;86;21174;-78
2022/10/14 09:20:21;;;;;;;30.25;21.90;;;;;;;19.88;65.65;100285.67;2021125;86;21015;-80
2022/10/14 09:23:25;;;;;;;29.63;19.48;;;;;;;19.76;64.17;100281.23;2022885;86;21026;-78
2022/10/14 09:26:41;;;;;;;30.17;20.00;;;;;;;19.83;64.08;100287.39;2004602;86;21589;-80
2022/10/14 09:30:01;;;;;;;31.65;20.40;;;;;;;19.98;63.30;100281.63;2000556;86;20974;-80
2022/10/14 09:33:03;;;;;;;32.23;20.15;;;;;;;20.06;61.64;100288.88;2012319;86;21029;-79
2022/10/14 09:36:15;;;;;;;31.55;21.23;;;;;;;20.08;62.16;100280.05;2019407;86;21542;-79
2022/10/14 09:39:17;;;;;;;33.08;21.05;;;;;;;20.28;62.07;100273.61;2015403;86;21007;-78
2022/10/14 09:42:23;;;;;;;26.97;19.62;;;;;;;20.47;61.08;100273.88;2015684;86;21006;-79
2022/10/14 09:45:27;;;;;;;28.12;20.92;;;;;;;20.58;60.65;100274.98;2011863;86;21089;-79
2022/10/14 09:48:36;;;;;;;34.27;21.15;;;;;;;20.64;60.03;100265.16;2015537;86;21023;-80
2022/10/14 09:51:41;;;;;;;29.03;18.90;;;;;;;20.68;59.64;100269.05;2013082;86;20990;-78
2022/10/14 09:54:42;;;;;;;23.85;17.55;;;;;;;20.82;59.54;100263.75;1999944;86;21297;-77
2022/10/14 09:57:43;;;;;;;24.00;17.92;;;;;;;20.82;59.08;100264.58;2013280;86;21081;-78
2022/10/14 10:00:46;;;;;;;30.37;18.95;;;;;;;20.91;58.76;100265.06;2021308;86;21010;-78
2022/10/14 10:03:50;;;;;;;24.60;17.40;;;;;;;20.84;58.19;100265.70;2019473;86;21011;-78
2022/10/14 10:06:53;;;;;;;24.00;16.37;;;;;;;20.89;58.05;100266.34;2020560;86;21058;-80
2022/10/14 10:10:01;;;;;;;24.95;16.40;;;;;;;20.73;57.70;100264.61;2004199;86;21125;-78
2022/10/14 10:13:02;;;;;;;29.87;19.40;;;;;;;20.80;57.55;100265.85;2023496;86;21770;-81
2022/10/14 10:16:07;;;;;;;24.30;17.48;;;;;;;20.89;57.29;100265.84;2019299;86;21050;-80
2022/10/14 10:19:33;;;;;;;25.02;16.12;;;;;;;20.87;56.94;100264.42;2024090;86;21585;-80
2022/10/14 10:22:37;;;;;;;23.07;15.43;;;;;;;20.78;57.05;100261.23;2024713;86;21104;-82
2022/10/14 10:25:39;;;;;;;30.43;17.73;;;;;;;20.55;56.54;100256.56;1990011;86;21061;-82
2022/10/14 10:28:48;;;;;;;29.32;19.02;;;;;;;20.63;56.46;100254.08;2017151;86;20996;-82
2022/10/14 10:32:00;;;;;;;29.50;18.77;;;;;;;20.67;55.16;100249.89;2022657;86;20995;-79
2022/10/14 10:35:39;;;;;;;25.23;16.93;;;;;;;20.78;55.77;100243.72;2023858;86;21002;-79
2022/10/14 10:39:18;;;;;;;26.97;19.80;;;;;;;21.06;55.38;100245.73;2021428;86;21035;-78
2022/10/14 10:42:28;;;;;;;27.42;18.12;;;;;;;20.48;54.58;100239.12;1998841;86;21002;-79
2022/10/14 10:46:17;;;;;;;28.47;17.42;;;;;;;19.97;55.34;100247.14;2017758;86;21053;-80
2022/10/14 10:49:54;;;;;;;26.00;16.75;;;;;;;19.89;55.08;100241.53;2007170;86;21668;-83
2022/10/14 10:53:13;;;;;;;28.83;17.50;;;;;;;19.66;55.07;100236.00;2025140;86;21581;-83
2022/10/14 10:56:38;;;;;;;25.35;17.85;;;;;;;19.67;55.40;100229.56;2023296;86;21062;-79
2022/10/14 10:59:55;;;;;;;26.20;17.02;;;;;;;19.71;55.26;100229.43;2018995;86;21117;-79
2022/10/14 11:03:18;;;;;;;25.25;16.67;;;;;;;19.84;54.06;100227.09;2019828;86;21807;-80
2022/10/14 11:13:54;;;;;;;21.65;15.88;;;;;;;19.96;54.58;100223.94;2009038;86;21132;-81
2022/10/14 11:17:13;;;;;;;26.37;16.45;;;;;;;20.14;54.66;100220.42;2010087;86;21031;-82
2022/10/14 11:20:40;;;;;;;24.37;16.93;;;;;;;20.13;53.96;100216.91;2000317;86;21085;-79
2022/10/14 11:24:02;;;;;;;21.05;15.00;;;;;;;20.07;54.12;100206.20;1992288;87;21632;-82
2022/10/14 11:27:17;;;;;;;23.83;15.68;;;;;;;19.90;52.64;100206.00;2017082;86;21510;-80
2022/10/14 11:30:43;;;;;;;26.40;15.58;;;;;;;19.79;53.38;100206.22;2022619;86;21000;-81
2022/10/14 11:34:23;;;;;;;20.55;15.35;;;;;;;19.91;53.61;100207.66;2010060;86;21005;-84
2022/10/14 11:37:38;;;;;;;19.90;14.87;;;;;;;20.06;53.46;100197.83;2005334;86;21064;-81
2022/10/14 11:41:09;;;;;;;23.75;15.50;;;;;;;19.93;52.86;100196.97;2012318;86;21514;-83
2022/10/14 11:44:25;;;;;;;28.20;15.53;;;;;;;19.90;53.38;100189.84;2012703;86;21062;-81
2022/10/14 11:47:31;;;;;;;22.55;16.12;;;;;;;19.73;53.18;100190.97;2019951;86;21055;-82
2022/10/14 11:50:39;;;;;;;27.73;16.15;;;;;;;19.68;53.40;100183.59;2016543;86;21029;-79
2022/10/14 11:54:06;;;;;;;22.13;15.13;;;;;;;19.56;52.68;100189.91;2015033;86;21048;-80
2022/10/14 11:57:28;;;;;;;26.90;16.50;;;;;;;19.42;53.46;100185.19;2025400;86;21063;-82
2022/10/14 12:00:32;;;;;;;23.07;16.45;;;;;;;19.58;53.73;100180.56;2013065;86;21081;-82
2022/10/14 12:04:03;;;;;;;26.15;16.52;;;;;;;19.58;53.33;100181.09;2015769;86;21041;-79
2022/10/14 12:07:12;;;;;;;17.10;13.55;;;;;;;19.38;52.80;100176.74;2028336;86;21053;-81
2022/10/14 12:10:20;;;;;;;22.20;15.63;;;;;;;18.93;53.32;100181.00;2022518;86;21091;-80
2022/10/14 12:13:37;;;;;;;26.02;15.98;;;;;;;18.92;54.06;100179.36;2022925;86;21091;-84
2022/10/14 12:16:42;;;;;;;22.90;14.40;;;;;;;18.85;54.33;100173.73;2023299;86;21030;-80
2022/10/14 12:19:46;;;;;;;27.98;14.30;;;;;;;18.59;53.79;100170.19;2026608;86;21113;-81
2022/10/14 12:22:48;;;;;;;23.27;15.53;;;;;;;18.40;54.30;100177.33;2018162;86;21476;-82
2022/10/14 12:25:58;;;;;;;19.45;14.63;;;;;;;18.22;54.65;100170.02;2016428;86;21511;-81
2022/10/14 12:29:01;;;;;;;25.80;14.70;;;;;;;18.07;54.86;100170.80;2009408;86;21071;-81
2022/10/14 12:32:08;;;;;;;24.80;16.25;;;;;;;17.99;55.07;100166.53;2011472;86;21502;-83
2022/10/14 12:35:45;;;;;;;27.30;15.23;;;;;;;17.92;55.24;100171.09;2017817;86;21390;-82
2022/10/14 12:39:09;;;;;;;20.40;14.43;;;;;;;17.86;55.61;100163.38;1958883;86;21054;-83
2022/10/14 12:42:13;;;;;;;21.05;13.53;;;;;;;17.84;55.83;100167.30;1984684;87;21057;-83
2022/10/14 12:45:22;;;;;;;26.87;14.05;;;;;;;17.80;55.81;100160.20;1990082;88;21170;-85
2022/10/14 12:48:34;;;;;;;23.20;13.88;;;;;;;17.84;56.09;100162.75;2009053;86;21071;-80
2022/10/14 12:51:35;;;;;;;20.15;13.20;;;;;;;17.90;56.24;100162.41;2018862;86;21489;-81
2022/10/14 12:54:41;;;;;;;24.98;16.25;;;;;;;17.96;56.34;100148.13;2010234;86;20967;-82
2022/10/14 12:57:42;;;;;;;24.80;16.37;;;;;;;18.04;56.48;100151.09;2011083;86;21058;-84
2022/10/14 13:00:49;;;;;;;23.65;15.95;;;;;;;18.02;56.03;100150.48;2013813;86;21079;-81
2022/10/14 13:04:07;;;;;;;36.45;18.45;;;;;;;17.87;56.21;100152.11;1983557;87;21702;-83
2022/10/14 13:07:17;;;;;;;24.05;14.30;;;;;;;17.83;56.59;100146.88;1988827;88;21062;-81
2022/10/14 13:10:38;;;;;;;26.20;17.03;;;;;;;17.96;56.80;100147.31;1990527;88;21516;-83
2022/10/14 13:13:48;;;;;;;19.95;15.13;;;;;;;18.04;56.97;100141.70;2007895;86;21107;-82
2022/10/14 13:16:57;;;;;;;23.40;14.55;;;;;;;18.18;56.77;100147.30;2020974;86;21517;-83
2022/10/14 13:19:58;;;;;;;22.50;14.35;;;;;;;18.29;56.87;100138.55;2016312;86;21025;-81
2022/10/14 13:23:23;;;;;;;20.85;14.25;;;;;;;18.45;56.96;100140.42;2016432;86;21032;-81
2022/10/14 13:26:36;;;;;;;19.73;13.93;;;;;;;18.49;56.63;100142.96;2025122;86;21015;-82
2022/10/14 13:30:01;;;;;;;20.65;13.45;;;;;;;18.47;56.70;100139.66;2018903;86;21058;-82
2022/10/14 13:33:30;;;;;;;17.35;11.60;;;;;;;18.46;56.55;100131.31;2015017;86;21001;-83
2022/10/14 13:36:39;;;;;;;19.92;12.90;;;;;;;18.51;56.62;100131.48;2024635;86;21536;-83
2022/10/14 13:39:40;;;;;;;20.95;12.73;;;;;;;18.35;56.64;100125.59;2022153;86;21051;-84
2022/10/14 13:42:41;;;;;;;24.18;12.78;;;;;;;18.30;56.84;100127.28;2022304;86;20976;-81
2022/10/14 13:45:54;;;;;;;15.18;11.00;;;;;;;18.22;56.97;100123.55;2013850;86;21034;-82
2022/10/14 13:48:58;;;;;;;19.20;12.20;;;;;;;18.15;57.54;100124.91;2023068;86;21063;-85
2022/10/14 14:10:22;;;;;;;17.60;10.80;;;;;;;17.94;58.42;100099.23;2025541;86;21176;-83
2022/10/14 14:13:24;;;;;;;18.65;11.83;;;;;;;17.82;58.63;100096.91;2008053;86;21085;-80
2022/10/14 14:16:38;;;;;;;25.32;14.53;;;;;;;17.82;58.53;100092.39;1979269;88;21038;-81
2022/10/14 14:19:45;;;;;;;17.92;10.95;;;;;;;17.82;58.38;100094.22;1983357;87;21118;-81
2022/10/14 14:22:46;;;;;;;18.07;10.63;;;;;;;17.75;58.22;100096.09;1988358;88;21028;-82
2022/10/14 14:25:49;;;;;;;34.88;11.55;;;;;;;17.63;58.39;100098.64;1988475;88;21039;-82
2022/10/14 14:28:50;;;;;;;20.10;10.95;;;;;;;17.53;58.44;100099.59;1987108;88;21008;-83
2022/10/14 14:31:52;;;;;;;19.80;10.50;;;;;;;17.41;58.52;100094.89;1986549;88;20976;-83
2022/10/14 14:34:53;;;;;;;13.10;9.80;;;;;;;17.34;58.78;100098.10;1984693;88;20981;-80
2022/10/14 14:37:55;;;;;;;21.27;11.50;;;;;;;17.30;58.99;100099.58;1982431;89;21138;-82
2022/10/14 14:41:18;;;;;;;16.32;10.25;;;;;;;17.24;59.06;100100.42;1989342;88;21011;-82
2022/10/14 14:44:23;;;;;;;21.17;9.03;;;;;;;17.21;59.40;100101.67;1987355;88;21467;-80
2022/10/14 14:47:27;;;;;;;16.23;8.83;;;;;;;17.14;59.60;100102.70;1987170;88;21131;-80
2022/10/14 14:50:35;;;;;;;17.50;9.55;;;;;;;17.12;59.97;100102.94;1986009;88;21047;-78
2022/10/14 14:53:37;;;;;;;18.20;9.53;;;;;;;17.11;60.23;100103.12;1986306;88;21064;-81